sensor_id;sensor_type;location;lat;lon;timestamp;P1;durP1;ratioP1;P2;durP2;ratioP2
44165;SDS011;30476;53.468;9.826;2022-08-18T00:01:08;11.23;;;5.63;;
44165;SDS011;30476;53.468;9.826;2022-08-18T00:03:36;12.17;;;6.93;;
44165;SDS011;30476;53.468;9.826;2022-08-18T00:06:02;11.17;;;5.93;;
44165;SDS011;30476;53.468;9.826;2022-08-18T00:08:28;10.97;;;6.40;;
44165;SDS011;30476;53.468;9.826;2022-08-18T00:10:54;10.97;;;6.47;;
44165;SDS011;30476;53.468;9.826;2022-08-18T00:13:20;12.27;;;5.87;;
44165;SDS011;30476;53.468;9.826;2022-08-18T00:15:46;14.13;;;6.17;;
44165;SDS011;30476;53.468;9.826;2022-08-18T00:18:12;11.10;;;6.37;;
44165;SDS011;30476;53.468;9.826;2022-08-18T00:20:39;13.87;;;6.43;;
44165;SDS011;30476;53.468;9.826;2022-08-18T00:23:05;10.67;;;5.87;;
44165;SDS011;30476;53.468;9.826;2022-08-18T00:25:31;11.23;;;5.80;;
44165;SDS011;30476;53.468;9.826;2022-08-18T00:27:57;10.93;;;5.80;;
44165;SDS011;30476;53.468;9.826;2022-08-18T00:30:23;10.70;;;5.80;;
44165;SDS011;30476;53.468;9.826;2022-08-18T00:32:51;11.50;;;5.70;;
44165;SDS011;30476;53.468;9.826;2022-08-18T00:35:24;10.37;;;5.93;;
44165;SDS011;30476;53.468;9.826;2022-08-18T00:38:05;10.80;;;5.60;;
44165;SDS011;30476;53.468;9.826;2022-08-18T00:40:40;10.90;;;5.13;;
44165;SDS011;30476;53.468;9.826;2022-08-18T00:43:14;10.77;;;5.60;;
44165;SDS011;30476;53.468;9.826;2022-08-18T00:45:44;12.17;;;5.70;;
44165;SDS011;30476;53.468;9.826;2022-08-18T00:48:10;10.50;;;5.90;;
44165;SDS011;30476;53.468;9.826;2022-08-18T00:51:00;12.27;;;6.40;;
44165;SDS011;30476;53.468;9.826;2022-08-18T00:53:27;12.80;;;5.60;;
44165;SDS011;30476;53.468;9.826;2022-08-18T00:56:08;13.40;;;6.97;;
44165;SDS011;30476;53.468;9.826;2022-08-18T00:59:00;11.43;;;6.23;;
44165;SDS011;30476;53.468;9.826;2022-08-18T01:01:36;12.13;;;6.83;;
44165;SDS011;30476;53.468;9.826;2022-08-18T01:04:14;11.50;;;6.60;;
44165;SDS011;30476;53.468;9.826;2022-08-18T01:09:26;11.30;;;7.13;;
44165;SDS011;30476;53.468;9.826;2022-08-18T01:11:53;12.70;;;7.03;;
44165;SDS011;30476;53.468;9.826;2022-08-18T01:14:20;11.80;;;7.00;;
44165;SDS011;30476;53.468;9.826;2022-08-18T01:16:47;12.50;;;6.90;;
44165;SDS011;30476;53.468;9.826;2022-08-18T01:19:33;12.80;;;7.57;;
44165;SDS011;30476;53.468;9.826;2022-08-18T01:24:53;12.10;;;7.50;;
44165;SDS011;30476;53.468;9.826;2022-08-18T01:27:41;14.13;;;7.70;;
44165;SDS011;30476;53.468;9.826;2022-08-18T01:30:09;14.03;;;7.50;;
44165;SDS011;30476;53.468;9.826;2022-08-18T01:32:39;13.43;;;6.70;;
44165;SDS011;30476;53.468;9.826;2022-08-18T01:35:09;13.00;;;7.07;;
44165;SDS011;30476;53.468;9.826;2022-08-18T01:37:36;14.43;;;7.50;;
44165;SDS011;30476;53.468;9.826;2022-08-18T01:40:06;13.40;;;7.20;;
44165;SDS011;30476;53.468;9.826;2022-08-18T01:42:34;11.67;;;6.63;;
44165;SDS011;30476;53.468;9.826;2022-08-18T01:45:01;13.53;;;7.70;;
44165;SDS011;30476;53.468;9.826;2022-08-18T01:47:29;13.03;;;6.87;;
44165;SDS011;30476;53.468;9.826;2022-08-18T01:49:56;13.23;;;6.77;;
44165;SDS011;30476;53.468;9.826;2022-08-18T01:52:23;14.27;;;8.13;;
44165;SDS011;30476;53.468;9.826;2022-08-18T01:54:49;13.13;;;8.40;;
44165;SDS011;30476;53.468;9.826;2022-08-18T01:57:16;14.20;;;7.90;;
44165;SDS011;30476;53.468;9.826;2022-08-18T01:59:46;14.60;;;8.37;;
44165;SDS011;30476;53.468;9.826;2022-08-18T02:02:13;13.27;;;8.07;;
44165;SDS011;30476;53.468;9.826;2022-08-18T02:04:41;14.37;;;7.60;;
44165;SDS011;30476;53.468;9.826;2022-08-18T02:07:09;13.67;;;7.13;;
44165;SDS011;30476;53.468;9.826;2022-08-18T02:09:38;14.57;;;8.27;;
44165;SDS011;30476;53.468;9.826;2022-08-18T02:12:06;12.07;;;7.80;;
44165;SDS011;30476;53.468;9.826;2022-08-18T02:14:35;13.97;;;8.50;;
44165;SDS011;30476;53.468;9.826;2022-08-18T02:17:02;13.43;;;8.17;;
44165;SDS011;30476;53.468;9.826;2022-08-18T02:19:36;14.60;;;7.60;;
44165;SDS011;30476;53.468;9.826;2022-08-18T02:22:05;13.00;;;7.93;;
44165;SDS011;30476;53.468;9.826;2022-08-18T02:24:33;12.53;;;7.30;;
44165;SDS011;30476;53.468;9.826;2022-08-18T02:26:59;14.50;;;6.50;;
44165;SDS011;30476;53.468;9.826;2022-08-18T02:29:25;12.50;;;7.20;;
44165;SDS011;30476;53.468;9.826;2022-08-18T02:31:51;13.30;;;7.23;;
44165;SDS011;30476;53.468;9.826;2022-08-18T02:34:17;15.50;;;7.53;;
44165;SDS011;30476;53.468;9.826;2022-08-18T02:36:43;15.80;;;8.20;;
44165;SDS011;30476;53.468;9.826;2022-08-18T02:39:09;14.93;;;8.57;;
44165;SDS011;30476;53.468;9.826;2022-08-18T02:41:35;14.80;;;8.10;;
44165;SDS011;30476;53.468;9.826;2022-08-18T02:44:01;14.07;;;7.90;;
44165;SDS011;30476;53.468;9.826;2022-08-18T02:46:29;13.90;;;7.57;;
44165;SDS011;30476;53.468;9.826;2022-08-18T02:48:55;20.03;;;9.07;;
44165;SDS011;30476;53.468;9.826;2022-08-18T02:51:21;12.50;;;7.90;;
44165;SDS011;30476;53.468;9.826;2022-08-18T02:53:47;14.07;;;8.30;;
44165;SDS011;30476;53.468;9.826;2022-08-18T02:56:14;13.33;;;7.70;;
44165;SDS011;30476;53.468;9.826;2022-08-18T02:58:49;14.00;;;7.83;;
44165;SDS011;30476;53.468;9.826;2022-08-18T03:01:23;14.23;;;8.30;;
44165;SDS011;30476;53.468;9.826;2022-08-18T03:03:51;14.50;;;8.03;;
44165;SDS011;30476;53.468;9.826;2022-08-18T03:06:18;14.00;;;8.07;;
44165;SDS011;30476;53.468;9.826;2022-08-18T03:08:45;14.10;;;8.00;;
44165;SDS011;30476;53.468;9.826;2022-08-18T03:11:15;13.90;;;8.10;;
44165;SDS011;30476;53.468;9.826;2022-08-18T03:13:41;15.10;;;8.63;;
44165;SDS011;30476;53.468;9.826;2022-08-18T03:16:07;14.73;;;8.50;;
44165;SDS011;30476;53.468;9.826;2022-08-18T03:18:33;12.83;;;8.33;;
44165;SDS011;30476;53.468;9.826;2022-08-18T03:21:10;16.33;;;9.97;;
44165;SDS011;30476;53.468;9.826;2022-08-18T03:23:37;16.57;;;10.20;;
44165;SDS011;30476;53.468;9.826;2022-08-18T03:26:07;15.33;;;10.17;;
44165;SDS011;30476;53.468;9.826;2022-08-18T03:28:36;15.20;;;10.30;;
44165;SDS011;30476;53.468;9.826;2022-08-18T03:31:03;15.90;;;11.00;;
44165;SDS011;30476;53.468;9.826;2022-08-18T03:33:29;17.60;;;11.27;;
44165;SDS011;30476;53.468;9.826;2022-08-18T03:35:55;16.50;;;10.00;;
44165;SDS011;30476;53.468;9.826;2022-08-18T03:38:21;14.03;;;8.43;;
44165;SDS011;30476;53.468;9.826;2022-08-18T03:40:50;17.87;;;10.73;;
44165;SDS011;30476;53.468;9.826;2022-08-18T03:43:16;16.20;;;9.80;;
44165;SDS011;30476;53.468;9.826;2022-08-18T03:45:42;14.30;;;9.70;;
44165;SDS011;30476;53.468;9.826;2022-08-18T03:48:08;17.60;;;10.53;;
44165;SDS011;30476;53.468;9.826;2022-08-18T03:50:35;15.83;;;10.50;;
44165;SDS011;30476;53.468;9.826;2022-08-18T03:53:02;16.30;;;10.07;;
44165;SDS011;30476;53.468;9.826;2022-08-18T03:55:29;15.93;;;10.37;;
44165;SDS011;30476;53.468;9.826;2022-08-18T03:57:59;15.70;;;8.70;;
44165;SDS011;30476;53.468;9.826;2022-08-18T04:00:29;19.57;;;9.93;;
44165;SDS011;30476;53.468;9.826;2022-08-18T04:02:58;15.10;;;9.90;;
44165;SDS011;30476;53.468;9.826;2022-08-18T04:05:26;15.83;;;9.60;;
44165;SDS011;30476;53.468;9.826;2022-08-18T04:07:54;16.97;;;9.90;;
44165;SDS011;30476;53.468;9.826;2022-08-18T04:10:22;16.50;;;10.07;;
44165;SDS011;30476;53.468;9.826;2022-08-18T04:12:49;15.23;;;9.90;;
44165;SDS011;30476;53.468;9.826;2022-08-18T04:15:15;15.40;;;9.80;;
44165;SDS011;30476;53.468;9.826;2022-08-18T04:17:41;18.40;;;10.37;;
44165;SDS011;30476;53.468;9.826;2022-08-18T04:20:09;16.93;;;10.10;;
44165;SDS011;30476;53.468;9.826;2022-08-18T04:22:37;17.50;;;10.40;;
44165;SDS011;30476;53.468;9.826;2022-08-18T04:25:03;16.40;;;10.63;;
44165;SDS011;30476;53.468;9.826;2022-08-18T04:27:29;16.30;;;10.93;;
44165;SDS011;30476;53.468;9.826;2022-08-18T04:29:55;13.83;;;9.70;;
44165;SDS011;30476;53.468;9.826;2022-08-18T04:32:21;14.77;;;9.40;;
44165;SDS011;30476;53.468;9.826;2022-08-18T04:34:48;15.73;;;10.33;;
44165;SDS011;30476;53.468;9.826;2022-08-18T04:37:14;18.30;;;11.10;;
44165;SDS011;30476;53.468;9.826;2022-08-18T04:39:41;16.17;;;10.67;;
44165;SDS011;30476;53.468;9.826;2022-08-18T04:42:09;16.33;;;10.50;;
44165;SDS011;30476;53.468;9.826;2022-08-18T04:44:35;17.83;;;10.03;;
44165;SDS011;30476;53.468;9.826;2022-08-18T04:47:02;15.17;;;10.10;;
44165;SDS011;30476;53.468;9.826;2022-08-18T04:49:29;17.63;;;10.97;;
44165;SDS011;30476;53.468;9.826;2022-08-18T04:51:56;18.10;;;11.50;;
44165;SDS011;30476;53.468;9.826;2022-08-18T04:54:41;15.37;;;10.10;;
44165;SDS011;30476;53.468;9.826;2022-08-18T04:59:38;16.43;;;10.57;;
44165;SDS011;30476;53.468;9.826;2022-08-18T05:02:05;18.10;;;10.60;;
44165;SDS011;30476;53.468;9.826;2022-08-18T05:04:36;18.10;;;12.00;;
44165;SDS011;30476;53.468;9.826;2022-08-18T05:07:05;16.93;;;12.10;;
44165;SDS011;30476;53.468;9.826;2022-08-18T05:09:33;16.40;;;11.10;;
44165;SDS011;30476;53.468;9.826;2022-08-18T05:12:04;16.37;;;11.60;;
44165;SDS011;30476;53.468;9.826;2022-08-18T05:14:31;18.43;;;11.60;;
44165;SDS011;30476;53.468;9.826;2022-08-18T05:16:58;15.67;;;11.00;;
44165;SDS011;30476;53.468;9.826;2022-08-18T05:19:25;16.53;;;11.60;;
44165;SDS011;30476;53.468;9.826;2022-08-18T05:21:51;16.80;;;11.43;;
44165;SDS011;30476;53.468;9.826;2022-08-18T05:24:19;16.47;;;11.37;;
44165;SDS011;30476;53.468;9.826;2022-08-18T05:26:46;18.70;;;12.50;;
44165;SDS011;30476;53.468;9.826;2022-08-18T05:29:13;14.43;;;10.50;;
44165;SDS011;30476;53.468;9.826;2022-08-18T05:31:40;16.40;;;11.60;;
44165;SDS011;30476;53.468;9.826;2022-08-18T05:34:06;18.87;;;13.37;;
44165;SDS011;30476;53.468;9.826;2022-08-18T05:36:41;16.37;;;11.93;;
44165;SDS011;30476;53.468;9.826;2022-08-18T05:39:26;17.03;;;12.63;;
44165;SDS011;30476;53.468;9.826;2022-08-18T05:42:00;18.70;;;13.93;;
44165;SDS011;30476;53.468;9.826;2022-08-18T05:44:40;21.80;;;14.37;;
44165;SDS011;30476;53.468;9.826;2022-08-18T05:49:37;21.90;;;15.20;;
44165;SDS011;30476;53.468;9.826;2022-08-18T05:52:05;23.57;;;18.40;;
44165;SDS011;30476;53.468;9.826;2022-08-18T05:54:47;25.87;;;19.47;;
44165;SDS011;30476;53.468;9.826;2022-08-18T05:57:37;29.60;;;20.27;;
44165;SDS011;30476;53.468;9.826;2022-08-18T06:00:09;27.93;;;21.07;;
44165;SDS011;30476;53.468;9.826;2022-08-18T06:02:37;31.63;;;21.13;;
44165;SDS011;30476;53.468;9.826;2022-08-18T06:05:11;29.93;;;22.83;;
44165;SDS011;30476;53.468;9.826;2022-08-18T06:07:59;31.10;;;22.60;;
44165;SDS011;30476;53.468;9.826;2022-08-18T06:10:32;32.20;;;24.13;;
44165;SDS011;30476;53.468;9.826;2022-08-18T06:13:00;35.70;;;24.40;;
44165;SDS011;30476;53.468;9.826;2022-08-18T06:15:47;35.70;;;25.57;;
44165;SDS011;30476;53.468;9.826;2022-08-18T06:23:30;39.17;;;26.90;;
44165;SDS011;30476;53.468;9.826;2022-08-18T06:26:05;43.77;;;28.00;;
44165;SDS011;30476;53.468;9.826;2022-08-18T06:29:01;48.10;;;30.63;;
44165;SDS011;30476;53.468;9.826;2022-08-18T06:34:35;51.00;;;32.03;;
44165;SDS011;30476;53.468;9.826;2022-08-18T06:37:17;53.10;;;32.07;;
44165;SDS011;30476;53.468;9.826;2022-08-18T06:39:50;54.30;;;32.37;;
44165;SDS011;30476;53.468;9.826;2022-08-18T06:42:17;49.73;;;31.40;;
44165;SDS011;30476;53.468;9.826;2022-08-18T06:44:47;52.47;;;30.53;;
44165;SDS011;30476;53.468;9.826;2022-08-18T06:47:20;51.83;;;34.40;;
44165;SDS011;30476;53.468;9.826;2022-08-18T06:50:19;53.83;;;31.10;;
44165;SDS011;30476;53.468;9.826;2022-08-18T06:52:52;53.63;;;33.37;;
44165;SDS011;30476;53.468;9.826;2022-08-18T06:55:18;51.10;;;32.53;;
44165;SDS011;30476;53.468;9.826;2022-08-18T06:58:04;50.43;;;31.63;;
44165;SDS011;30476;53.468;9.826;2022-08-18T07:00:52;48.57;;;31.00;;
44165;SDS011;30476;53.468;9.826;2022-08-18T07:03:41;49.20;;;30.63;;
44165;SDS011;30476;53.468;9.826;2022-08-18T07:08:45;50.63;;;31.37;;
44165;SDS011;30476;53.468;9.826;2022-08-18T07:13:39;50.20;;;29.20;;
44165;SDS011;30476;53.468;9.826;2022-08-18T07:16:17;60.17;;;33.50;;
44165;SDS011;30476;53.468;9.826;2022-08-18T07:18:47;62.47;;;34.33;;
44165;SDS011;30476;53.468;9.826;2022-08-18T07:21:25;58.40;;;32.93;;
44165;SDS011;30476;53.468;9.826;2022-08-18T07:23:57;65.20;;;33.37;;
44165;SDS011;30476;53.468;9.826;2022-08-18T07:26:25;66.10;;;32.80;;
44165;SDS011;30476;53.468;9.826;2022-08-18T07:28:51;61.87;;;31.93;;
44165;SDS011;30476;53.468;9.826;2022-08-18T07:31:33;63.50;;;32.60;;
44165;SDS011;30476;53.468;9.826;2022-08-18T07:34:33;60.70;;;31.93;;
44165;SDS011;30476;53.468;9.826;2022-08-18T07:37:09;56.40;;;31.63;;
44165;SDS011;30476;53.468;9.826;2022-08-18T07:42:23;55.50;;;32.17;;
44165;SDS011;30476;53.468;9.826;2022-08-18T07:45:04;54.20;;;32.10;;
44165;SDS011;30476;53.468;9.826;2022-08-18T07:47:44;52.57;;;28.10;;
44165;SDS011;30476;53.468;9.826;2022-08-18T07:50:17;52.00;;;30.27;;
44165;SDS011;30476;53.468;9.826;2022-08-18T07:53:08;58.83;;;32.60;;
44165;SDS011;30476;53.468;9.826;2022-08-18T07:55:40;61.90;;;31.00;;
44165;SDS011;30476;53.468;9.826;2022-08-18T08:01:03;52.57;;;32.70;;
44165;SDS011;30476;53.468;9.826;2022-08-18T08:06:31;53.63;;;30.80;;
44165;SDS011;30476;53.468;9.826;2022-08-18T08:13:22;53.60;;;30.40;;
44165;SDS011;30476;53.468;9.826;2022-08-18T08:15:18;56.00;;;28.20;;
44165;SDS011;30476;53.468;9.826;2022-08-18T08:20:31;45.40;;;28.57;;
44165;SDS011;30476;53.468;9.826;2022-08-18T08:23:10;45.93;;;27.27;;
44165;SDS011;30476;53.468;9.826;2022-08-18T08:28:29;46.70;;;28.50;;
44165;SDS011;30476;53.468;9.826;2022-08-18T08:31:09;41.10;;;27.30;;
44165;SDS011;30476;53.468;9.826;2022-08-18T08:33:41;45.67;;;28.13;;
44165;SDS011;30476;53.468;9.826;2022-08-18T08:36:17;40.20;;;24.97;;
44165;SDS011;30476;53.468;9.826;2022-08-18T08:38:56;42.43;;;26.60;;
44165;SDS011;30476;53.468;9.826;2022-08-18T08:44:06;40.37;;;25.53;;
44165;SDS011;30476;53.468;9.826;2022-08-18T08:46:57;41.10;;;25.90;;
44165;SDS011;30476;53.468;9.826;2022-08-18T08:49:38;45.40;;;26.20;;
44165;SDS011;30476;53.468;9.826;2022-08-18T08:52:22;44.43;;;25.60;;
44165;SDS011;30476;53.468;9.826;2022-08-18T08:54:58;38.23;;;25.10;;
44165;SDS011;30476;53.468;9.826;2022-08-18T08:57:50;33.40;;;22.97;;
44165;SDS011;30476;53.468;9.826;2022-08-18T09:00:22;36.50;;;24.40;;
44165;SDS011;30476;53.468;9.826;2022-08-18T09:05:35;37.77;;;24.97;;
44165;SDS011;30476;53.468;9.826;2022-08-18T09:19:33;33.93;;;22.63;;
44165;SDS011;30476;53.468;9.826;2022-08-18T09:24:54;33.60;;;21.87;;
44165;SDS011;30476;53.468;9.826;2022-08-18T09:30:07;32.83;;;22.37;;
44165;SDS011;30476;53.468;9.826;2022-08-18T09:32:55;36.77;;;23.97;;
44165;SDS011;30476;53.468;9.826;2022-08-18T09:38:30;33.20;;;23.30;;
44165;SDS011;30476;53.468;9.826;2022-08-18T09:41:21;33.60;;;23.20;;
44165;SDS011;30476;53.468;9.826;2022-08-18T09:44:07;33.37;;;21.77;;
44165;SDS011;30476;53.468;9.826;2022-08-18T09:51:48;34.90;;;23.40;;
44165;SDS011;30476;53.468;9.826;2022-08-18T09:54:18;35.33;;;22.30;;
44165;SDS011;30476;53.468;9.826;2022-08-18T09:59:29;28.60;;;21.10;;
44165;SDS011;30476;53.468;9.826;2022-08-18T10:02:09;28.40;;;19.90;;
44165;SDS011;30476;53.468;9.826;2022-08-18T10:04:40;28.33;;;20.57;;
44165;SDS011;30476;53.468;9.826;2022-08-18T10:10:06;31.43;;;20.57;;
44165;SDS011;30476;53.468;9.826;2022-08-18T10:21:08;28.43;;;20.50;;
44165;SDS011;30476;53.468;9.826;2022-08-18T10:27:09;29.87;;;21.57;;
44165;SDS011;30476;53.468;9.826;2022-08-18T10:37:10;27.20;;;17.20;;
44165;SDS011;30476;53.468;9.826;2022-08-18T10:39:51;23.63;;;16.53;;
44165;SDS011;30476;53.468;9.826;2022-08-18T10:42:33;24.73;;;16.37;;
44165;SDS011;30476;53.468;9.826;2022-08-18T10:45:14;23.67;;;15.03;;
44165;SDS011;30476;53.468;9.826;2022-08-18T10:50:48;24.50;;;15.27;;
44165;SDS011;30476;53.468;9.826;2022-08-18T11:05:11;23.27;;;14.40;;
44165;SDS011;30476;53.468;9.826;2022-08-18T11:07:41;21.80;;;14.80;;
44165;SDS011;30476;53.468;9.826;2022-08-18T11:10:14;25.20;;;15.40;;
44165;SDS011;30476;53.468;9.826;2022-08-18T11:15:18;23.60;;;15.93;;
44165;SDS011;30476;53.468;9.826;2022-08-18T11:17:55;25.10;;;16.80;;
44165;SDS011;30476;53.468;9.826;2022-08-18T11:20:38;22.47;;;14.93;;
44165;SDS011;30476;53.468;9.826;2022-08-18T11:23:11;23.80;;;15.90;;
44165;SDS011;30476;53.468;9.826;2022-08-18T11:25:38;21.90;;;14.93;;
44165;SDS011;30476;53.468;9.826;2022-08-18T11:28:16;23.30;;;14.47;;
44165;SDS011;30476;53.468;9.826;2022-08-18T11:30:45;20.90;;;13.13;;
44165;SDS011;30476;53.468;9.826;2022-08-18T11:33:15;20.27;;;11.67;;
44165;SDS011;30476;53.468;9.826;2022-08-18T11:35:49;19.80;;;11.53;;
44165;SDS011;30476;53.468;9.826;2022-08-18T11:38:18;19.40;;;12.27;;
44165;SDS011;30476;53.468;9.826;2022-08-18T11:40:51;19.37;;;12.00;;
44165;SDS011;30476;53.468;9.826;2022-08-18T11:43:34;18.50;;;10.60;;
44165;SDS011;30476;53.468;9.826;2022-08-18T11:46:10;17.97;;;10.87;;
44165;SDS011;30476;53.468;9.826;2022-08-18T11:48:47;16.60;;;10.43;;
44165;SDS011;30476;53.468;9.826;2022-08-18T12:06:35;22.90;;;10.10;;
44165;SDS011;30476;53.468;9.826;2022-08-18T12:14:18;17.23;;;10.00;;
44165;SDS011;30476;53.468;9.826;2022-08-18T12:16:47;19.30;;;11.10;;
44165;SDS011;30476;53.468;9.826;2022-08-18T12:19:13;18.80;;;11.07;;
44165;SDS011;30476;53.468;9.826;2022-08-18T12:21:42;18.57;;;10.57;;
44165;SDS011;30476;53.468;9.826;2022-08-18T12:26:54;14.73;;;8.80;;
44165;SDS011;30476;53.468;9.826;2022-08-18T12:29:22;19.73;;;9.47;;
44165;SDS011;30476;53.468;9.826;2022-08-18T12:31:50;17.63;;;9.13;;
44165;SDS011;30476;53.468;9.826;2022-08-18T12:34:18;20.43;;;9.70;;
44165;SDS011;30476;53.468;9.826;2022-08-18T12:36:49;17.13;;;8.70;;
44165;SDS011;30476;53.468;9.826;2022-08-18T12:39:16;15.67;;;9.13;;
44165;SDS011;30476;53.468;9.826;2022-08-18T12:41:42;15.33;;;8.97;;
44165;SDS011;30476;53.468;9.826;2022-08-18T12:44:08;16.87;;;9.33;;
44165;SDS011;30476;53.468;9.826;2022-08-18T12:46:34;17.00;;;10.30;;
44165;SDS011;30476;53.468;9.826;2022-08-18T12:49:01;15.17;;;8.50;;
44165;SDS011;30476;53.468;9.826;2022-08-18T12:51:28;15.30;;;8.80;;
44165;SDS011;30476;53.468;9.826;2022-08-18T12:53:54;16.70;;;8.13;;
44165;SDS011;30476;53.468;9.826;2022-08-18T12:56:27;15.80;;;8.10;;
44165;SDS011;30476;53.468;9.826;2022-08-18T12:58:55;15.00;;;8.30;;
44165;SDS011;30476;53.468;9.826;2022-08-18T13:01:22;15.67;;;7.80;;
44165;SDS011;30476;53.468;9.826;2022-08-18T13:03:49;16.97;;;8.40;;
44165;SDS011;30476;53.468;9.826;2022-08-18T13:06:17;16.97;;;9.23;;
44165;SDS011;30476;53.468;9.826;2022-08-18T13:08:44;15.17;;;8.07;;
44165;SDS011;30476;53.468;9.826;2022-08-18T13:11:10;16.00;;;8.43;;
44165;SDS011;30476;53.468;9.826;2022-08-18T13:13:37;15.97;;;8.97;;
44165;SDS011;30476;53.468;9.826;2022-08-18T13:16:06;15.83;;;8.70;;
44165;SDS011;30476;53.468;9.826;2022-08-18T13:18:33;16.23;;;8.70;;
44165;SDS011;30476;53.468;9.826;2022-08-18T13:21:00;15.93;;;9.50;;
44165;SDS011;30476;53.468;9.826;2022-08-18T13:23:27;19.03;;;8.87;;
44165;SDS011;30476;53.468;9.826;2022-08-18T13:25:55;14.60;;;8.37;;
44165;SDS011;30476;53.468;9.826;2022-08-18T13:28:23;15.47;;;8.50;;
44165;SDS011;30476;53.468;9.826;2022-08-18T13:30:49;14.40;;;8.53;;
44165;SDS011;30476;53.468;9.826;2022-08-18T13:33:15;16.13;;;9.57;;
44165;SDS011;30476;53.468;9.826;2022-08-18T13:35:43;20.00;;;10.27;;
44165;SDS011;30476;53.468;9.826;2022-08-18T13:38:10;17.57;;;8.40;;
44165;SDS011;30476;53.468;9.826;2022-08-18T13:40:38;14.93;;;8.40;;
44165;SDS011;30476;53.468;9.826;2022-08-18T13:43:04;18.30;;;8.53;;
44165;SDS011;30476;53.468;9.826;2022-08-18T13:45:32;16.70;;;8.60;;
44165;SDS011;30476;53.468;9.826;2022-08-18T13:47:59;14.80;;;8.30;;
44165;SDS011;30476;53.468;9.826;2022-08-18T13:50:24;14.97;;;8.90;;
44165;SDS011;30476;53.468;9.826;2022-08-18T13:52:51;17.70;;;9.43;;
44165;SDS011;30476;53.468;9.826;2022-08-18T13:55:18;15.00;;;8.67;;
44165;SDS011;30476;53.468;9.826;2022-08-18T13:57:45;18.80;;;9.37;;
44165;SDS011;30476;53.468;9.826;2022-08-18T14:00:16;13.90;;;8.93;;
44165;SDS011;30476;53.468;9.826;2022-08-18T14:02:48;15.63;;;8.50;;
44165;SDS011;30476;53.468;9.826;2022-08-18T14:05:18;14.83;;;8.87;;
44165;SDS011;30476;53.468;9.826;2022-08-18T14:07:45;16.17;;;8.63;;
44165;SDS011;30476;53.468;9.826;2022-08-18T14:10:11;15.90;;;8.20;;
44165;SDS011;30476;53.468;9.826;2022-08-18T14:12:38;18.17;;;8.00;;
44165;SDS011;30476;53.468;9.826;2022-08-18T14:15:07;19.47;;;8.90;;
44165;SDS011;30476;53.468;9.826;2022-08-18T14:17:36;14.30;;;7.87;;
44165;SDS011;30476;53.468;9.826;2022-08-18T14:20:02;16.63;;;8.53;;
44165;SDS011;30476;53.468;9.826;2022-08-18T14:22:49;16.40;;;9.50;;
44165;SDS011;30476;53.468;9.826;2022-08-18T14:25:34;17.80;;;11.03;;
44165;SDS011;30476;53.468;9.826;2022-08-18T14:28:19;16.57;;;10.70;;
44165;SDS011;30476;53.468;9.826;2022-08-18T14:30:45;15.80;;;10.40;;
44165;SDS011;30476;53.468;9.826;2022-08-18T14:33:11;16.80;;;11.53;;
44165;SDS011;30476;53.468;9.826;2022-08-18T14:35:40;17.43;;;11.60;;
44165;SDS011;30476;53.468;9.826;2022-08-18T14:38:06;18.40;;;12.47;;
44165;SDS011;30476;53.468;9.826;2022-08-18T14:40:32;16.60;;;11.97;;
44165;SDS011;30476;53.468;9.826;2022-08-18T14:42:59;18.40;;;12.10;;
44165;SDS011;30476;53.468;9.826;2022-08-18T14:45:27;17.33;;;11.43;;
44165;SDS011;30476;53.468;9.826;2022-08-18T14:47:54;18.70;;;11.37;;
44165;SDS011;30476;53.468;9.826;2022-08-18T14:50:21;16.77;;;10.87;;
44165;SDS011;30476;53.468;9.826;2022-08-18T14:52:47;15.30;;;10.50;;
44165;SDS011;30476;53.468;9.826;2022-08-18T14:55:14;14.90;;;8.80;;
44165;SDS011;30476;53.468;9.826;2022-08-18T14:57:41;17.10;;;9.90;;
44165;SDS011;30476;53.468;9.826;2022-08-18T15:00:08;15.67;;;9.17;;
44165;SDS011;30476;53.468;9.826;2022-08-18T15:02:37;17.87;;;10.10;;
44165;SDS011;30476;53.468;9.826;2022-08-18T15:05:06;17.77;;;10.27;;
44165;SDS011;30476;53.468;9.826;2022-08-18T15:07:33;16.53;;;11.30;;
44165;SDS011;30476;53.468;9.826;2022-08-18T15:10:03;16.10;;;10.93;;
44165;SDS011;30476;53.468;9.826;2022-08-18T15:12:36;15.90;;;9.03;;
44165;SDS011;30476;53.468;9.826;2022-08-18T15:15:03;15.83;;;10.00;;
44165;SDS011;30476;53.468;9.826;2022-08-18T15:17:30;16.63;;;10.10;;
44165;SDS011;30476;53.468;9.826;2022-08-18T15:19:56;18.20;;;11.00;;
44165;SDS011;30476;53.468;9.826;2022-08-18T15:22:22;15.27;;;9.70;;
44165;SDS011;30476;53.468;9.826;2022-08-18T15:25:06;15.60;;;9.80;;
44165;SDS011;30476;53.468;9.826;2022-08-18T15:27:51;15.10;;;9.70;;
44165;SDS011;30476;53.468;9.826;2022-08-18T15:30:18;17.47;;;12.43;;
44165;SDS011;30476;53.468;9.826;2022-08-18T15:32:46;15.80;;;10.87;;
44165;SDS011;30476;53.468;9.826;2022-08-18T15:35:13;15.70;;;10.50;;
44165;SDS011;30476;53.468;9.826;2022-08-18T15:37:43;15.40;;;10.77;;
44165;SDS011;30476;53.468;9.826;2022-08-18T15:40:18;14.60;;;10.30;;
44165;SDS011;30476;53.468;9.826;2022-08-18T15:42:47;18.33;;;10.70;;
44165;SDS011;30476;53.468;9.826;2022-08-18T15:45:18;18.03;;;10.73;;
44165;SDS011;30476;53.468;9.826;2022-08-18T15:47:52;19.33;;;12.53;;
44165;SDS011;30476;53.468;9.826;2022-08-18T15:50:18;17.00;;;10.53;;
44165;SDS011;30476;53.468;9.826;2022-08-18T15:52:48;13.83;;;8.20;;
44165;SDS011;30476;53.468;9.826;2022-08-18T15:55:20;14.57;;;7.40;;
44165;SDS011;30476;53.468;9.826;2022-08-18T15:57:47;13.93;;;7.73;;
44165;SDS011;30476;53.468;9.826;2022-08-18T16:00:14;15.27;;;7.87;;
44165;SDS011;30476;53.468;9.826;2022-08-18T16:02:43;13.67;;;8.23;;
44165;SDS011;30476;53.468;9.826;2022-08-18T16:05:21;17.07;;;8.57;;
44165;SDS011;30476;53.468;9.826;2022-08-18T16:07:50;14.33;;;7.97;;
44165;SDS011;30476;53.468;9.826;2022-08-18T16:10:17;15.43;;;8.40;;
44165;SDS011;30476;53.468;9.826;2022-08-18T16:12:45;13.57;;;8.33;;
44165;SDS011;30476;53.468;9.826;2022-08-18T16:15:12;14.00;;;7.80;;
44165;SDS011;30476;53.468;9.826;2022-08-18T16:17:40;13.37;;;8.20;;
44165;SDS011;30476;53.468;9.826;2022-08-18T16:20:05;18.67;;;8.73;;
44165;SDS011;30476;53.468;9.826;2022-08-18T16:22:33;14.60;;;7.67;;
44165;SDS011;30476;53.468;9.826;2022-08-18T16:25:02;15.60;;;7.70;;
44165;SDS011;30476;53.468;9.826;2022-08-18T16:27:29;14.37;;;7.93;;
44165;SDS011;30476;53.468;9.826;2022-08-18T16:29:56;14.40;;;7.37;;
44165;SDS011;30476;53.468;9.826;2022-08-18T16:32:22;14.07;;;7.80;;
44165;SDS011;30476;53.468;9.826;2022-08-18T16:34:48;16.43;;;8.03;;
44165;SDS011;30476;53.468;9.826;2022-08-18T16:37:14;11.80;;;7.40;;
44165;SDS011;30476;53.468;9.826;2022-08-18T16:39:40;13.90;;;7.80;;
44165;SDS011;30476;53.468;9.826;2022-08-18T16:42:05;14.80;;;7.00;;
44165;SDS011;30476;53.468;9.826;2022-08-18T16:44:31;14.00;;;7.40;;
44165;SDS011;30476;53.468;9.826;2022-08-18T16:46:57;13.53;;;7.60;;
44165;SDS011;30476;53.468;9.826;2022-08-18T16:49:26;14.13;;;7.83;;
44165;SDS011;30476;53.468;9.826;2022-08-18T16:51:53;15.00;;;8.27;;
44165;SDS011;30476;53.468;9.826;2022-08-18T16:54:19;12.77;;;7.70;;
44165;SDS011;30476;53.468;9.826;2022-08-18T16:56:45;12.93;;;7.73;;
44165;SDS011;30476;53.468;9.826;2022-08-18T16:59:10;15.03;;;8.27;;
44165;SDS011;30476;53.468;9.826;2022-08-18T17:01:55;16.23;;;8.63;;
44165;SDS011;30476;53.468;9.826;2022-08-18T17:04:39;15.03;;;9.37;;
44165;SDS011;30476;53.468;9.826;2022-08-18T17:07:05;18.23;;;9.90;;